createdAt,value
2023-12-09T00:00:13.814Z,20.40
2023-12-09T00:02:19.377Z,22.02
2023-12-09T00:04:24.566Z,22.63
2023-12-09T00:06:29.435Z,22.17
2023-12-09T00:08:34.568Z,35.42
2023-12-09T00:10:39.431Z,33.75
2023-12-09T00:12:45.290Z,19.58
2023-12-09T00:14:47.513Z,21.27
2023-12-09T00:16:52.413Z,35.97
2023-12-09T00:18:57.792Z,30.08
2023-12-09T00:21:05.214Z,30.25
2023-12-09T00:23:10.197Z,23.02
2023-12-09T00:25:15.395Z,22.70
2023-12-09T00:27:20.318Z,26.60
2023-12-09T00:29:25.069Z,36.47
2023-12-09T00:31:29.879Z,35.40
2023-12-09T00:33:34.931Z,28.73
2023-12-09T00:35:39.744Z,22.73
2023-12-09T00:37:47.212Z,28.30
2023-12-09T00:39:51.964Z,40.83
2023-12-09T00:41:56.854Z,34.42
2023-12-09T00:44:01.760Z,23.85
2023-12-09T00:46:06.068Z,18.27
2023-12-09T00:48:11.536Z,34.85
2023-12-09T00:50:16.615Z,22.05
2023-12-09T00:52:21.415Z,20.15
2023-12-09T00:54:30.911Z,18.95
2023-12-09T00:56:35.881Z,26.27
2023-12-09T00:58:40.783Z,22.92
2023-12-09T01:00:45.896Z,33.72
2023-12-09T01:02:48.510Z,30.52
2023-12-09T01:04:53.419Z,30.23
2023-12-09T01:06:58.196Z,29.15
2023-12-09T01:09:03.005Z,38.35
2023-12-09T01:11:10.672Z,24.13
2023-12-09T01:13:13.270Z,34.35
2023-12-09T01:15:18.133Z,21.40
2023-12-09T01:17:22.971Z,20.33
2023-12-09T01:19:27.687Z,22.10
2023-12-09T01:21:32.557Z,19.83
2023-12-09T01:23:37.341Z,20.42
2023-12-09T01:25:42.201Z,22.20
2023-12-09T01:27:49.820Z,24.40
2023-12-09T01:29:54.550Z,20.92
2023-12-09T01:32:01.604Z,15.40
2023-12-09T01:34:06.864Z,26.77
2023-12-09T01:36:12.621Z,21.23
2023-12-09T01:38:17.551Z,24.52
2023-12-09T01:40:22.771Z,21.88
2023-12-09T01:42:25.324Z,23.95
2023-12-09T01:44:32.942Z,28.20
2023-12-09T01:46:38.183Z,21.27
2023-12-09T01:48:43.360Z,21.85
2023-12-09T01:50:46.148Z,17.52
2023-12-09T01:54:53.186Z,25.52
2023-12-09T01:56:58.765Z,32.30
2023-12-09T01:59:03.540Z,24.70
2023-12-09T02:01:11.217Z,21.48
2023-12-09T02:03:18.902Z,27.73
2023-12-09T02:05:27.392Z,25.80
2023-12-09T02:07:32.503Z,21.48
2023-12-09T02:09:41.299Z,17.30
2023-12-09T02:11:53.588Z,21.85
2023-12-09T02:14:08.887Z,17.53
2023-12-09T02:16:21.293Z,22.73
2023-12-09T02:18:28.483Z,22.95
2023-12-09T02:20:33.734Z,24.48
2023-12-09T02:22:35.902Z,20.88
2023-12-09T02:24:43.251Z,16.30
2023-12-09T02:26:45.636Z,25.77
2023-12-09T02:28:58.927Z,29.38
2023-12-09T02:31:11.083Z,19.88
2023-12-09T02:33:19.032Z,15.37
2023-12-09T02:35:26.905Z,14.93
2023-12-09T02:37:34.143Z,17.48
2023-12-09T02:39:39.931Z,24.63
2023-12-09T02:41:50.132Z,29.38
2023-12-09T02:43:54.994Z,19.05
2023-12-09T02:45:59.984Z,26.98
2023-12-09T02:48:05.136Z,16.50
2023-12-09T02:50:13.119Z,25.35
2023-12-09T02:52:15.522Z,15.52
2023-12-09T02:54:22.246Z,25.50
2023-12-09T02:56:27.144Z,28.73
2023-12-09T02:58:34.427Z,24.83
2023-12-09T03:00:39.184Z,26.88
2023-12-09T03:02:44.074Z,30.08
2023-12-09T03:04:48.857Z,12.90
2023-12-09T03:06:53.674Z,24.05
2023-12-09T03:08:58.454Z,19.92
2023-12-09T03:11:03.192Z,23.88
2023-12-09T03:13:05.372Z,20.35
2023-12-09T03:15:13.997Z,27.73
2023-12-09T03:17:16.214Z,26.42
2023-12-09T03:19:21.442Z,24.80
2023-12-09T03:21:26.410Z,19.70
2023-12-09T03:23:31.209Z,21.17
2023-12-09T03:25:36.333Z,18.92
2023-12-09T03:27:38.681Z,33.17
2023-12-09T03:29:43.534Z,23.92
2023-12-09T03:31:51.609Z,18.00
2023-12-09T03:33:59.466Z,24.40
2023-12-09T03:36:04.348Z,20.38
2023-12-09T03:38:09.029Z,26.33
2023-12-09T03:40:15.424Z,15.52
2023-12-09T03:42:20.311Z,19.17
2023-12-09T03:44:22.809Z,31.17
2023-12-09T03:46:27.599Z,31.08
2023-12-09T03:48:35.178Z,20.05
2023-12-09T03:50:40.329Z,19.27
2023-12-09T03:52:45.474Z,20.23
2023-12-09T03:54:50.259Z,25.27
2023-12-09T03:56:55.234Z,31.40
2023-12-09T03:59:01.619Z,21.42
2023-12-09T04:01:06.976Z,26.58
2023-12-09T04:03:12.569Z,21.77
2023-12-09T04:05:20.055Z,18.20
2023-12-09T04:07:24.868Z,19.65
2023-12-09T04:09:29.610Z,23.17
2023-12-09T04:11:34.378Z,29.30
2023-12-09T04:13:39.233Z,28.23
2023-12-09T04:15:41.438Z,20.83
2023-12-09T04:17:46.409Z,27.40
2023-12-09T04:19:53.194Z,26.67
2023-12-09T04:22:00.755Z,17.77
2023-12-09T04:24:08.289Z,43.55
2023-12-09T04:26:13.276Z,28.48
2023-12-09T04:28:18.146Z,27.02
2023-12-09T04:30:23.372Z,32.92
2023-12-09T04:32:28.550Z,26.60
2023-12-09T04:34:33.674Z,24.20
2023-12-09T04:36:38.786Z,23.88
2023-12-09T04:38:46.475Z,30.13
2023-12-09T04:40:51.233Z,21.58
2023-12-09T04:42:56.315Z,22.70
2023-12-09T04:45:01.145Z,20.85
2023-12-09T04:47:08.160Z,16.90
2023-12-09T04:49:10.816Z,18.13
2023-12-09T04:51:16.016Z,24.90
2023-12-09T04:53:22.032Z,25.88
2023-12-09T04:55:30.171Z,17.80
2023-12-09T04:57:35.204Z,18.25
2023-12-09T04:59:39.968Z,25.55
2023-12-09T05:01:47.180Z,21.90
2023-12-09T05:03:52.212Z,24.23
2023-12-09T05:05:58.366Z,36.00
2023-12-09T05:08:04.637Z,23.17
2023-12-09T05:10:07.804Z,41.05
2023-12-09T05:12:18.097Z,30.25
2023-12-09T05:14:20.316Z,28.10
2023-12-09T05:16:25.054Z,27.35
2023-12-09T05:18:30.249Z,22.08
2023-12-09T05:20:32.545Z,36.70
2023-12-09T05:22:38.513Z,22.38
2023-12-09T05:24:44.017Z,26.20
2023-12-09T05:26:46.371Z,29.58
2023-12-09T05:28:53.963Z,23.30
2023-12-09T05:30:58.789Z,26.48
2023-12-09T05:33:05.029Z,20.77
2023-12-09T05:35:14.146Z,25.38
2023-12-09T05:37:18.810Z,31.33
2023-12-09T05:39:23.520Z,24.35
2023-12-09T05:41:28.551Z,33.38
2023-12-09T05:43:34.998Z,27.80
2023-12-09T05:45:44.332Z,28.90
2023-12-09T05:47:49.337Z,25.58
2023-12-09T05:49:54.208Z,31.38
2023-12-09T05:51:58.980Z,36.15
2023-12-09T05:54:03.757Z,22.35
2023-12-09T05:56:13.225Z,27.08
2023-12-09T05:58:18.198Z,33.50
2023-12-09T06:00:20.725Z,38.42
2023-12-09T06:02:28.612Z,31.02
2023-12-09T06:04:31.027Z,26.25
2023-12-09T06:06:35.927Z,36.33
2023-12-09T06:08:41.023Z,42.03
2023-12-09T06:10:49.097Z,48.85
2023-12-09T06:12:53.957Z,36.53
2023-12-09T06:14:58.730Z,39.15
2023-12-09T06:17:03.650Z,34.33
2023-12-09T06:19:12.325Z,57.08
2023-12-09T06:21:23.217Z,38.40
2023-12-09T06:23:28.013Z,41.40
2023-12-09T06:25:32.891Z,42.97
2023-12-09T06:27:39.348Z,50.88
2023-12-09T06:29:41.573Z,49.53
2023-12-09T06:31:46.480Z,52.85
2023-12-09T06:33:51.423Z,47.08
2023-12-09T06:35:59.092Z,43.00
2023-12-09T06:38:04.025Z,46.97
2023-12-09T06:40:10.522Z,40.72
2023-12-09T06:42:15.146Z,47.28
2023-12-09T06:44:19.916Z,43.05
2023-12-09T06:46:24.707Z,42.80
2023-12-09T06:48:29.808Z,37.47
2023-12-09T06:50:34.759Z,42.85
2023-12-09T06:52:42.572Z,45.03
2023-12-09T06:54:47.460Z,46.08
2023-12-09T06:56:52.308Z,54.58
2023-12-09T06:58:57.189Z,51.90
2023-12-09T07:01:03.073Z,39.63
2023-12-09T07:03:08.846Z,56.20
2023-12-09T07:05:18.497Z,63.75
2023-12-09T07:07:23.501Z,48.20
2023-12-09T07:09:31.609Z,83.63
2023-12-09T07:11:36.881Z,48.35
2023-12-09T07:13:42.430Z,52.63
2023-12-09T07:15:47.284Z,65.38
2023-12-09T07:17:52.303Z,52.83
2023-12-09T07:19:57.985Z,51.78
2023-12-09T07:22:04.908Z,52.22
2023-12-09T07:24:10.059Z,48.42
2023-12-09T07:26:17.709Z,59.05
2023-12-09T07:28:23.489Z,49.67
2023-12-09T07:30:28.762Z,45.15
2023-12-09T07:32:34.057Z,56.92
2023-12-09T07:34:37.455Z,58.22
2023-12-09T07:36:43.084Z,42.75
2023-12-09T07:38:48.262Z,56.75
2023-12-09T07:40:53.088Z,43.22
2023-12-09T07:43:00.358Z,58.47
2023-12-09T07:45:05.151Z,45.97
2023-12-09T07:47:10.326Z,39.65
2023-12-09T07:49:18.466Z,47.92
2023-12-09T07:51:23.460Z,48.10
2023-12-09T07:53:29.095Z,44.15
2023-12-09T07:55:34.284Z,39.95
2023-12-09T07:57:36.949Z,48.70
2023-12-09T07:59:45.025Z,47.20
2023-12-09T08:01:50.115Z,49.55
2023-12-09T08:03:55.060Z,45.05
2023-12-09T08:06:00.469Z,46.40
2023-12-09T08:08:05.611Z,49.00
2023-12-09T08:10:11.631Z,43.50
2023-12-09T08:12:14.296Z,46.97
2023-12-09T08:14:19.069Z,41.97
2023-12-09T08:16:26.384Z,44.92
2023-12-09T08:18:31.540Z,38.65
2023-12-09T08:20:36.503Z,45.50
2023-12-09T08:22:43.123Z,50.88
2023-12-09T08:24:47.844Z,39.42
2023-12-09T08:26:52.723Z,37.88
2023-12-09T08:28:58.768Z,38.42
2023-12-09T08:31:05.756Z,37.03
2023-12-09T08:33:13.537Z,29.65
2023-12-09T08:35:16.002Z,37.22
2023-12-09T08:37:26.738Z,41.42
2023-12-09T08:39:32.045Z,33.58
2023-12-09T08:41:37.335Z,38.92
2023-12-09T08:43:44.735Z,38.35
2023-12-09T08:45:49.621Z,29.58
2023-12-09T08:47:59.193Z,45.60
2023-12-09T08:50:21.315Z,27.85
2023-12-09T08:52:29.020Z,28.45
2023-12-09T08:54:34.427Z,24.98
2023-12-09T08:56:39.206Z,29.60
2023-12-09T08:58:48.227Z,32.33
2023-12-09T09:00:53.692Z,28.77
2023-12-09T09:02:58.841Z,29.70
2023-12-09T09:05:06.586Z,26.55
2023-12-09T09:07:08.917Z,24.02
2023-12-09T09:09:13.921Z,21.60
2023-12-09T09:11:18.844Z,21.92
2023-12-09T09:13:23.676Z,24.98
2023-12-09T09:15:28.843Z,22.17
2023-12-09T09:17:33.871Z,24.20
2023-12-09T09:19:38.994Z,25.50
2023-12-09T09:21:46.593Z,31.98
2023-12-09T09:23:51.290Z,27.35
2023-12-09T09:26:03.302Z,17.38
2023-12-09T09:28:09.826Z,15.93
2023-12-09T09:30:16.064Z,19.52
2023-12-09T09:32:18.847Z,24.98
2023-12-09T09:36:29.015Z,21.75
2023-12-09T09:38:46.930Z,22.08
2023-12-09T09:40:51.880Z,18.95
2023-12-09T09:43:00.503Z,18.55
2023-12-09T09:45:16.727Z,19.45
2023-12-09T09:47:20.446Z,15.80
2023-12-09T09:49:28.217Z,21.55
2023-12-09T09:51:34.802Z,23.25
2023-12-09T09:53:59.520Z,18.33
2023-12-09T09:56:05.216Z,18.20
2023-12-09T09:58:14.501Z,30.48
2023-12-09T10:00:21.150Z,17.00
2023-12-09T10:02:27.283Z,19.13
2023-12-09T10:04:32.351Z,16.33
2023-12-09T10:06:38.838Z,15.32
2023-12-09T10:08:47.919Z,16.30
2023-12-09T10:10:56.270Z,22.15
2023-12-09T10:13:01.459Z,16.48
2023-12-09T10:15:09.260Z,17.58
2023-12-09T10:17:14.403Z,25.83
2023-12-09T10:19:22.100Z,18.38
2023-12-09T10:21:29.663Z,19.95
2023-12-09T10:23:34.623Z,26.02
2023-12-09T10:25:44.066Z,11.77
2023-12-09T10:27:52.768Z,13.65
2023-12-09T10:30:00.180Z,11.20
2023-12-09T10:32:05.417Z,21.30
2023-12-09T10:34:17.692Z,16.45
2023-12-09T10:36:23.600Z,16.42
2023-12-09T10:38:32.186Z,13.98
2023-12-09T10:40:37.581Z,12.77
2023-12-09T10:42:49.026Z,15.10
2023-12-09T10:44:53.813Z,17.85
2023-12-09T10:46:58.584Z,12.30
2023-12-09T10:49:03.772Z,10.48
2023-12-09T10:51:09.212Z,14.23
2023-12-09T10:53:14.162Z,16.05
2023-12-09T10:55:20.720Z,17.42
2023-12-09T10:57:27.293Z,13.93
2023-12-09T10:59:36.729Z,9.77
2023-12-09T11:01:43.959Z,12.10
2023-12-09T11:03:49.832Z,19.42
2023-12-09T11:06:01.760Z,11.32
2023-12-09T11:08:07.662Z,13.40
2023-12-09T11:10:14.671Z,12.00
2023-12-09T11:12:30.315Z,15.95
2023-12-09T11:14:38.315Z,11.45
2023-12-09T11:16:47.634Z,12.13
2023-12-09T11:18:51.330Z,14.18
2023-12-09T11:20:58.975Z,14.57
2023-12-09T11:23:05.534Z,12.57
2023-12-09T11:25:13.586Z,16.55
2023-12-09T11:27:22.042Z,14.63
2023-12-09T11:29:28.561Z,11.68
2023-12-09T11:31:38.823Z,12.93
2023-12-09T11:33:43.860Z,12.10
2023-12-09T11:35:51.529Z,11.15
2023-12-09T11:37:57.795Z,14.10
2023-12-09T11:40:07.187Z,9.60
2023-12-09T11:42:14.326Z,10.20
2023-12-09T11:44:19.294Z,9.65
2023-12-09T11:46:21.981Z,10.00
2023-12-09T11:48:30.947Z,9.23
2023-12-09T11:50:35.828Z,7.28
2023-12-09T11:52:40.678Z,5.03
2023-12-09T11:54:46.090Z,9.70
2023-12-09T11:56:50.814Z,8.55
2023-12-09T11:58:53.515Z,5.85
2023-12-09T12:01:00.970Z,12.35
2023-12-09T12:03:06.578Z,8.32
2023-12-09T12:05:15.376Z,4.97
2023-12-09T12:07:20.318Z,8.10
2023-12-09T12:09:25.155Z,5.47
2023-12-09T12:11:29.866Z,5.70
2023-12-09T12:13:32.207Z,9.85
2023-12-09T12:15:37.159Z,5.78
2023-12-09T12:17:46.234Z,9.10
2023-12-09T12:19:51.715Z,6.00
2023-12-09T12:21:59.796Z,4.88
2023-12-09T12:24:07.036Z,9.35
2023-12-09T12:26:10.888Z,6.93
2023-12-09T12:28:18.906Z,6.35
2023-12-09T12:30:24.371Z,8.50
2023-12-09T12:32:29.770Z,4.68
2023-12-09T12:34:34.872Z,5.85
2023-12-09T12:36:39.909Z,5.35
2023-12-09T12:38:48.331Z,4.85
2023-12-09T12:40:54.003Z,3.15
2023-12-09T12:42:58.827Z,5.45
2023-12-09T12:45:04.924Z,3.95
2023-12-09T12:47:15.214Z,3.97
2023-12-09T12:49:20.241Z,5.82
2023-12-09T12:51:26.883Z,7.18
2023-12-09T12:53:32.068Z,5.78
2023-12-09T12:55:39.534Z,4.20
2023-12-09T12:57:43.116Z,6.57
2023-12-09T12:59:48.003Z,5.03
2023-12-09T13:01:52.950Z,7.28
2023-12-09T13:03:58.164Z,4.40
2023-12-09T13:06:06.015Z,3.30
2023-12-09T13:08:08.205Z,7.50
2023-12-09T13:10:14.001Z,2.50
2023-12-09T13:12:21.602Z,3.63
2023-12-09T13:14:26.436Z,4.43
2023-12-09T13:16:28.746Z,4.65
2023-12-09T13:18:34.004Z,5.47
2023-12-09T13:20:39.237Z,6.32
2023-12-09T13:22:43.987Z,4.75
2023-12-09T13:24:49.275Z,5.18
2023-12-09T13:26:54.133Z,4.63
2023-12-09T13:29:01.638Z,4.57
2023-12-09T13:31:06.889Z,9.00
2023-12-09T13:33:12.960Z,4.22
2023-12-09T13:35:16.370Z,5.10
2023-12-09T13:37:22.238Z,4.78
2023-12-09T13:39:27.325Z,5.50
2023-12-09T13:41:32.299Z,6.43
2023-12-09T13:43:37.045Z,3.40
2023-12-09T13:45:44.601Z,11.90
2023-12-09T13:47:49.578Z,11.75
2023-12-09T13:49:54.561Z,7.13
2023-12-09T13:51:59.923Z,2.65
2023-12-09T13:54:05.110Z,7.13
2023-12-09T13:56:11.642Z,6.38
2023-12-09T13:58:16.645Z,3.13
2023-12-09T14:00:22.020Z,4.28
2023-12-09T14:02:29.827Z,3.20
2023-12-09T14:04:34.923Z,6.13
2023-12-09T14:06:41.370Z,2.55
2023-12-09T14:08:46.324Z,3.75
2023-12-09T14:10:51.337Z,2.90
2023-12-09T14:12:56.820Z,6.32
2023-12-09T14:15:01.776Z,3.88
2023-12-09T14:17:08.300Z,2.92
2023-12-09T14:19:15.828Z,3.40
2023-12-09T14:21:18.774Z,4.25
2023-12-09T14:25:29.590Z,3.88
2023-12-09T14:27:35.531Z,3.55
2023-12-09T14:29:37.670Z,2.63
2023-12-09T14:31:42.577Z,3.40
2023-12-09T14:33:47.587Z,2.65
2023-12-09T14:35:55.385Z,2.45
2023-12-09T14:38:00.251Z,2.08
2023-12-09T14:40:06.601Z,4.40
2023-12-09T14:42:11.568Z,3.28
2023-12-09T14:44:16.461Z,3.60
2023-12-09T14:46:24.687Z,2.17
2023-12-09T14:48:32.521Z,4.68
2023-12-09T14:50:37.784Z,3.38
2023-12-09T14:52:46.436Z,3.00
2023-12-09T14:54:51.512Z,3.22
2023-12-09T14:56:56.668Z,3.45
2023-12-09T14:59:02.281Z,2.83
2023-12-09T15:01:07.899Z,5.32
2023-12-09T15:03:13.420Z,5.68
2023-12-09T15:05:18.607Z,3.17
2023-12-09T15:07:23.550Z,5.72
2023-12-09T15:09:28.432Z,4.75
2023-12-09T15:11:33.418Z,6.15
2023-12-09T15:13:38.137Z,6.35
2023-12-09T15:15:40.314Z,4.72
2023-12-09T15:17:45.343Z,4.13
2023-12-09T15:19:51.227Z,5.75
2023-12-09T15:21:56.799Z,3.47
2023-12-09T15:24:02.035Z,7.45
2023-12-09T15:26:09.865Z,3.75
2023-12-09T15:28:15.529Z,5.43
2023-12-09T15:30:20.709Z,6.35
2023-12-09T15:32:28.341Z,5.32
2023-12-09T15:34:31.993Z,5.55
2023-12-09T15:36:37.266Z,4.40
2023-12-09T15:38:42.090Z,6.78
2023-12-09T15:40:48.260Z,6.10
2023-12-09T15:42:56.001Z,6.60
2023-12-09T15:45:01.613Z,4.82
2023-12-09T15:47:10.548Z,8.15
2023-12-09T15:49:15.812Z,6.15
2023-12-09T15:51:20.760Z,5.95
2023-12-09T15:53:27.057Z,6.63
2023-12-09T15:55:34.178Z,6.90
2023-12-09T15:57:39.075Z,6.00
2023-12-09T15:59:47.845Z,5.97
2023-12-09T16:01:55.255Z,7.28
2023-12-09T16:04:00.660Z,7.15
2023-12-09T16:06:05.551Z,6.45
2023-12-09T16:08:10.641Z,5.57
2023-12-09T16:10:16.234Z,8.02
2023-12-09T16:12:21.733Z,6.72
2023-12-09T16:14:26.792Z,6.47
2023-12-09T16:16:34.381Z,8.40
2023-12-09T16:18:40.406Z,8.18
2023-12-09T16:20:45.423Z,7.38
2023-12-09T16:22:50.301Z,9.23
2023-12-09T16:24:57.500Z,7.97
2023-12-09T16:27:02.360Z,8.90
2023-12-09T16:29:07.141Z,12.52
2023-12-09T16:31:17.329Z,10.90
2023-12-09T16:33:24.931Z,11.23
2023-12-09T16:35:29.753Z,12.38
2023-12-09T16:37:31.976Z,10.82
2023-12-09T16:39:37.033Z,14.70
2023-12-09T16:41:42.005Z,13.18
2023-12-09T16:43:46.847Z,17.38
2023-12-09T16:45:51.818Z,17.45
2023-12-09T16:47:57.426Z,17.92
2023-12-09T16:50:06.601Z,17.83
2023-12-09T16:52:13.435Z,18.85
2023-12-09T16:54:15.707Z,18.45
2023-12-09T16:56:20.700Z,18.50
2023-12-09T16:58:25.556Z,17.98
2023-12-09T17:00:27.814Z,18.25
2023-12-09T17:02:32.915Z,25.17
2023-12-09T17:04:37.910Z,17.15
2023-12-09T17:06:45.881Z,19.20
2023-12-09T17:08:50.941Z,17.27
2023-12-09T17:10:58.633Z,24.88
2023-12-09T17:13:03.439Z,28.55
2023-12-09T17:15:09.101Z,21.38
2023-12-09T17:17:14.373Z,18.90
2023-12-09T17:19:19.383Z,25.42
2023-12-09T17:21:21.695Z,31.98
2023-12-09T17:23:29.082Z,33.40
2023-12-09T17:25:33.985Z,22.98
2023-12-09T17:27:38.882Z,38.15
2023-12-09T17:29:41.367Z,21.63
2023-12-09T17:31:48.219Z,17.75
2023-12-09T17:33:53.599Z,20.85
2023-12-09T17:35:59.146Z,20.42
2023-12-09T17:38:03.979Z,24.73
2023-12-09T17:40:12.783Z,30.10
2023-12-09T17:42:17.588Z,21.35
2023-12-09T17:44:22.421Z,18.75
2023-12-09T17:46:27.434Z,18.02
2023-12-09T17:48:32.602Z,17.73
2023-12-09T17:50:37.555Z,16.83
2023-12-09T17:52:42.579Z,26.52
2023-12-09T17:54:47.474Z,19.05
2023-12-09T17:56:54.994Z,18.45
2023-12-09T17:58:57.585Z,28.77
2023-12-09T18:03:08.410Z,22.83
2023-12-09T18:05:13.449Z,13.38
2023-12-09T18:07:15.799Z,15.55
2023-12-09T18:09:20.637Z,15.73
2023-12-09T18:11:25.950Z,18.10
2023-12-09T18:13:33.674Z,14.38
2023-12-09T18:15:38.798Z,17.42
2023-12-09T18:17:44.848Z,16.60
2023-12-09T18:19:50.088Z,18.48
2023-12-09T18:21:54.783Z,33.05
2023-12-09T18:24:01.392Z,28.05
2023-12-09T18:26:06.471Z,18.27
2023-12-09T18:28:11.433Z,25.20
2023-12-09T18:30:21.890Z,25.95
2023-12-09T18:32:27.583Z,22.23
2023-12-09T18:34:33.200Z,26.38
2023-12-09T18:36:38.145Z,23.25
2023-12-09T18:38:40.376Z,21.90
2023-12-09T18:40:45.216Z,20.83
2023-12-09T18:42:52.242Z,17.27
2023-12-09T18:44:54.734Z,24.27
2023-12-09T18:47:02.742Z,19.00
2023-12-09T18:49:09.491Z,18.65
2023-12-09T18:51:14.374Z,26.08
2023-12-09T18:53:19.269Z,18.40
2023-12-09T18:55:24.056Z,20.23
2023-12-09T18:57:29.691Z,18.73
2023-12-09T18:59:36.728Z,16.70
2023-12-09T19:01:41.532Z,14.23
2023-12-09T19:03:46.498Z,20.70
2023-12-09T19:05:51.537Z,19.40
2023-12-09T19:07:53.811Z,21.55
2023-12-09T19:09:59.227Z,17.25
2023-12-09T19:12:04.959Z,12.98
2023-12-09T19:14:09.653Z,14.00
2023-12-09T19:16:14.767Z,19.98
2023-12-09T19:18:19.645Z,14.55
2023-12-09T19:20:27.116Z,13.57
2023-12-09T19:22:32.482Z,20.80
2023-12-09T19:24:34.685Z,23.70
2023-12-09T19:26:39.653Z,15.98
2023-12-09T19:28:44.478Z,13.27
2023-12-09T19:30:49.546Z,21.13
2023-12-09T19:32:54.394Z,29.20
2023-12-09T19:34:57.093Z,17.25
2023-12-09T19:37:04.548Z,14.65
2023-12-09T19:39:09.408Z,13.15
2023-12-09T19:41:14.181Z,16.45
2023-12-09T19:43:20.468Z,17.27
2023-12-09T19:45:26.749Z,17.52
2023-12-09T19:47:28.880Z,24.67
2023-12-09T19:49:34.282Z,23.40
2023-12-09T19:51:39.188Z,16.17
2023-12-09T19:53:46.522Z,21.75
2023-12-09T19:55:52.860Z,25.58
2023-12-09T19:57:55.006Z,22.95
2023-12-09T20:00:01.990Z,13.52
2023-12-09T20:02:07.034Z,24.45
2023-12-09T20:04:15.667Z,17.92
2023-12-09T20:06:20.551Z,28.33
2023-12-09T20:08:25.560Z,23.27
2023-12-09T20:10:34.702Z,15.85
2023-12-09T20:12:39.542Z,26.55
2023-12-09T20:14:44.412Z,21.42
2023-12-09T20:16:51.714Z,14.85
2023-12-09T20:18:56.748Z,15.55
2023-12-09T20:21:02.431Z,20.02
2023-12-09T20:23:07.334Z,33.50
2023-12-09T20:25:14.104Z,17.92
2023-12-09T20:27:22.025Z,20.60
2023-12-09T20:29:26.286Z,14.75
2023-12-09T20:31:31.064Z,14.43
2023-12-09T20:33:36.504Z,20.70
2023-12-09T20:35:41.338Z,18.92
2023-12-09T20:37:46.092Z,20.98
2023-12-09T20:39:50.920Z,14.70
2023-12-09T20:41:57.642Z,21.38
2023-12-09T20:44:05.050Z,12.18
2023-12-09T20:46:10.327Z,12.65
2023-12-09T20:48:17.318Z,19.63
2023-12-09T20:50:22.219Z,23.98
2023-12-09T20:52:27.330Z,22.02
2023-12-09T20:54:32.569Z,14.52
2023-12-09T20:56:37.502Z,14.38
2023-12-09T20:58:42.341Z,27.45
2023-12-09T21:00:50.612Z,22.20
2023-12-09T21:02:55.402Z,30.92
2023-12-09T21:05:01.413Z,19.15
2023-12-09T21:07:08.400Z,16.15
2023-12-09T21:09:15.961Z,14.73
2023-12-09T21:11:22.687Z,15.15
2023-12-09T21:13:27.352Z,19.52
2023-12-09T21:15:32.321Z,15.60
2023-12-09T21:17:37.161Z,16.88
2023-12-09T21:19:42.953Z,28.42
2023-12-09T21:21:48.008Z,17.27
2023-12-09T21:23:53.109Z,12.23
2023-12-09T21:25:57.852Z,14.93
2023-12-09T21:28:04.910Z,15.98
2023-12-09T21:30:12.208Z,13.10
2023-12-09T21:32:16.966Z,7.32
2023-12-09T21:34:24.615Z,11.93
2023-12-09T21:36:30.522Z,24.27
2023-12-09T21:38:35.322Z,22.23
2023-12-09T21:40:40.361Z,16.85
2023-12-09T21:42:47.493Z,23.90
2023-12-09T21:44:54.219Z,19.90
2023-12-09T21:46:59.023Z,23.35
2023-12-09T21:49:06.159Z,15.38
2023-12-09T21:51:13.908Z,17.92
2023-12-09T21:53:18.755Z,27.35
2023-12-09T21:55:24.007Z,22.35
2023-12-09T21:57:31.915Z,22.38
2023-12-09T21:59:37.799Z,18.80
2023-12-09T22:01:44.870Z,25.65
2023-12-09T22:03:50.740Z,22.30
2023-12-09T22:05:55.796Z,34.97
2023-12-09T22:08:03.337Z,17.15
2023-12-09T22:10:10.759Z,21.23
2023-12-09T22:12:15.648Z,19.92
2023-12-09T22:14:20.818Z,26.45
2023-12-09T22:16:26.052Z,29.85
2023-12-09T22:18:32.363Z,15.40
2023-12-09T22:20:37.312Z,19.30
2023-12-09T22:22:51.622Z,29.42
2023-12-09T22:25:05.434Z,18.80
2023-12-09T22:27:10.699Z,25.63
2023-12-09T22:29:13.348Z,24.80
2023-12-09T22:31:19.249Z,25.05
2023-12-09T22:33:25.586Z,21.88
2023-12-09T22:35:33.235Z,14.75
2023-12-09T22:37:40.961Z,15.25
2023-12-09T22:39:47.246Z,22.52
2023-12-09T22:41:54.971Z,24.25
2023-12-09T22:44:07.017Z,17.92
2023-12-09T22:46:11.876Z,23.70
2023-12-09T22:48:20.957Z,14.48
2023-12-09T22:50:27.896Z,26.02
2023-12-09T22:52:34.400Z,23.60
2023-12-09T22:54:37.177Z,26.65
2023-12-09T22:58:49.347Z,20.67
2023-12-09T23:00:57.245Z,10.25
2023-12-09T23:03:04.409Z,15.38
2023-12-09T23:05:13.102Z,20.08
2023-12-09T23:07:20.356Z,17.48
2023-12-09T23:09:25.241Z,28.45
2023-12-09T23:11:30.548Z,12.98
2023-12-09T23:13:34.020Z,24.00
2023-12-09T23:15:41.548Z,26.33
2023-12-09T23:17:46.757Z,21.13
2023-12-09T23:19:49.547Z,18.83
2023-12-09T23:21:55.574Z,19.13
2023-12-09T23:24:00.619Z,13.50
2023-12-09T23:26:05.742Z,23.92
2023-12-09T23:28:11.623Z,14.73
2023-12-09T23:30:17.160Z,31.77
2023-12-09T23:32:22.047Z,23.58
2023-12-09T23:34:26.864Z,22.73
2023-12-09T23:36:31.721Z,23.17
2023-12-09T23:38:36.796Z,22.73
2023-12-09T23:40:41.744Z,18.88
2023-12-09T23:42:47.291Z,30.65
2023-12-09T23:44:52.384Z,27.10
2023-12-09T23:46:57.176Z,22.63
2023-12-09T23:49:04.923Z,21.90
2023-12-09T23:51:11.030Z,20.17
2023-12-09T23:53:18.287Z,19.33
2023-12-09T23:55:24.975Z,24.52
2023-12-09T23:57:30.844Z,18.67
2023-12-09T23:59:36.427Z,20.20
